ENOV/HOV METAR and TAF weather

Enter ICAO airport designator
Station Type Date Time Source
ENOV METAR 2021/04/16 18:50 UTC NOAA

ENOV 161850Z VRB01KT CAVOK 03/M02 Q1032 RMK WIND 2175FT 15004KT


Station Type Date Time Source
ENOV Decoded METAR 2021/04/16 18:50 UTC NOAA

Orsta-Volda / Hovden, Norway (ENOV) 62-11N 006-04E 74M
Apr 16, 2021 - 02:50 PM EDT / 2021.04.16 1850 UTC
Wind: Variable at 1 MPH (1 KT):0
Visibility: greater than 7 mile(s):0
Temperature: 37 F (3 C)
Dew Point: 28 F (-2 C)
Relative Humidity: 69%
Pressure (altimeter): 30.47 in. Hg (1032 hPa)
ob: ENOV 161850Z VRB01KT CAVOK 03/M02 Q1032 RMK WIND 2175FT 15004KT
cycle: 19

Station Type Date Time Source
ENOV TAF UTC NOAA

Error!

Example: see airport list